createdAt,value
2023-06-14T00:00:22.734Z,40.95703
2023-06-14T00:00:52.744Z,41.30859
2023-06-14T00:01:22.735Z,41.38574
2023-06-14T00:01:52.762Z,41.57324
2023-06-14T00:02:22.817Z,41.62793
2023-06-14T00:02:54.954Z,41.84961
2023-06-14T00:03:22.814Z,41.51855
2023-06-14T00:03:52.800Z,41.2207
2023-06-14T00:04:22.848Z,41.62988
2023-06-14T00:04:52.736Z,41.70605
2023-06-14T00:05:22.738Z,41.58496
2023-06-14T00:05:52.736Z,41.84961
2023-06-14T00:06:22.737Z,42.01465
2023-06-14T00:06:52.748Z,41.49805
2023-06-14T00:07:22.745Z,41.43164
2023-06-14T00:07:52.744Z,41.22266
2023-06-14T00:08:22.739Z,41.55371
2023-06-14T00:08:52.741Z,41.97363
2023-06-14T00:09:22.737Z,41.53125
2023-06-14T00:09:52.740Z,41.09961
2023-06-14T00:10:22.744Z,41.56348
2023-06-14T00:10:52.742Z,41.67383
2023-06-14T00:11:22.742Z,41.5957
2023-06-14T00:11:52.748Z,41.52539
2023-06-14T00:12:22.740Z,41.60352
2023-06-14T00:12:52.739Z,41.63477
2023-06-14T00:13:22.741Z,41.22852
2023-06-14T00:13:52.753Z,41.24219
2023-06-14T00:14:22.747Z,41.38672
2023-06-14T00:14:52.742Z,41.39941
2023-06-14T00:15:22.744Z,41.54199
2023-06-14T00:15:52.742Z,42.14844
2023-06-14T00:16:22.753Z,41.48438
2023-06-14T00:16:52.804Z,42.02246
2023-06-14T00:17:22.762Z,41.91016
2023-06-14T00:17:52.796Z,41.40137
2023-06-14T00:18:22.742Z,41.13672
2023-06-14T00:18:52.744Z,41.67578
2023-06-14T00:19:22.750Z,41.59863
2023-06-14T00:19:52.748Z,41.58789
2023-06-14T00:20:22.741Z,41.96289
2023-06-14T00:20:52.753Z,41.3125
2023-06-14T00:21:22.740Z,41.1377
2023-06-14T00:21:52.751Z,41.88672
2023-06-14T00:22:22.748Z,41.29199
2023-06-14T00:22:52.746Z,41.52441
2023-06-14T00:23:22.744Z,41.8877
2023-06-14T00:23:52.785Z,41.75781
2023-06-14T00:24:22.817Z,42.3623
2023-06-14T00:24:54.307Z,41.83203
2023-06-14T00:25:28.495Z,42.7793
2023-06-14T00:25:53.594Z,41.96289
2023-06-14T00:26:22.750Z,41.56543
2023-06-14T00:26:52.748Z,42.28418
2023-06-14T00:27:22.748Z,41.85645
2023-06-14T00:27:52.748Z,42.12402
2023-06-14T00:28:22.747Z,41.68555
2023-06-14T00:28:52.748Z,41.98438
2023-06-14T00:29:22.745Z,41.75488
2023-06-14T00:29:52.746Z,41.77832
2023-06-14T00:30:22.749Z,41.80078
2023-06-14T00:30:52.757Z,41.33984
2023-06-14T00:31:22.746Z,41.2959
2023-06-14T00:31:52.828Z,41.36426
2023-06-14T00:32:22.823Z,41.08984
2023-06-14T00:32:53.154Z,41.41113
2023-06-14T00:33:22.821Z,41.44531
2023-06-14T00:33:52.747Z,41.96289
2023-06-14T00:34:22.753Z,41.31152
2023-06-14T00:34:52.744Z,41.57617
2023-06-14T00:35:22.750Z,41.26758
2023-06-14T00:35:52.748Z,41.36621
2023-06-14T00:36:22.752Z,41.65332
2023-06-14T00:36:52.759Z,41.68555
2023-06-14T00:37:22.751Z,41.85059
2023-06-14T00:37:52.760Z,42.31152
2023-06-14T00:38:22.755Z,42.48633
2023-06-14T00:38:52.750Z,42.27832
2023-06-14T00:39:22.759Z,41.80566
2023-06-14T00:39:52.748Z,41.65137
2023-06-14T00:40:22.753Z,41.3418
2023-06-14T00:40:52.752Z,41.39844
2023-06-14T00:41:22.752Z,41.49805
2023-06-14T00:41:52.750Z,41.67676
2023-06-14T00:42:22.758Z,41.8877
2023-06-14T00:42:52.761Z,41.09473
2023-06-14T00:43:22.749Z,41.37012
2023-06-14T00:43:52.759Z,42.09766
2023-06-14T00:44:22.761Z,42.40625
2023-06-14T00:44:52.757Z,42.1416
2023-06-14T00:45:22.760Z,42.20898
2023-06-14T00:45:52.753Z,42.09863
2023-06-14T00:46:22.792Z,41.49121
2023-06-14T00:46:52.933Z,41.9209
2023-06-14T00:47:22.782Z,41.89746
2023-06-14T00:47:52.790Z,42.17285
2023-06-14T00:48:22.752Z,42.10645
2023-06-14T00:48:52.753Z,42.13867
2023-06-14T00:49:22.767Z,41.95215
2023-06-14T00:49:52.750Z,41.99707
2023-06-14T00:50:22.768Z,41.96387
2023-06-14T00:50:52.795Z,41.69727
2023-06-14T00:51:22.761Z,42.20313
2023-06-14T00:51:52.784Z,42.39063
2023-06-14T00:52:22.755Z,41.75195
2023-06-14T00:52:52.770Z,41.80957
2023-06-14T00:53:22.760Z,41.44727
2023-06-14T00:53:52.751Z,41.86816
2023-06-14T00:54:22.760Z,41.92383
2023-06-14T00:54:52.761Z,42.06738
2023-06-14T00:55:22.754Z,41.83691
2023-06-14T00:55:52.762Z,41.97949
2023-06-14T00:56:22.756Z,42.37598
2023-06-14T00:56:52.754Z,41.98828
2023-06-14T00:57:22.755Z,41.83398
2023-06-14T00:57:52.755Z,41.91113
2023-06-14T00:58:22.758Z,42.21875
2023-06-14T00:58:52.759Z,41.91016
2023-06-14T00:59:22.754Z,41.82422
2023-06-14T00:59:52.773Z,41.7168
2023-06-14T01:00:22.769Z,41.57617
2023-06-14T01:00:52.767Z,41.67773
2023-06-14T01:01:22.775Z,41.99902
2023-06-14T01:01:52.839Z,42.00098
2023-06-14T01:02:22.768Z,42.21191
2023-06-14T01:02:52.806Z,42.03613
2023-06-14T01:03:22.842Z,41.96973
2023-06-14T01:03:52.881Z,41.82715
2023-06-14T01:04:22.761Z,41.38672
2023-06-14T01:04:52.804Z,42.06055
2023-06-14T01:05:22.759Z,41.79688
2023-06-14T01:05:52.762Z,41.9834
2023-06-14T01:06:22.764Z,41.82715
2023-06-14T01:06:52.764Z,42.4541
2023-06-14T01:07:22.774Z,41.98047
2023-06-14T01:07:52.777Z,42.11426
2023-06-14T01:08:22.779Z,42.01758
2023-06-14T01:08:52.784Z,42.37109
2023-06-14T01:09:22.763Z,42.59375
2023-06-14T01:09:52.765Z,42.66016
2023-06-14T01:10:22.766Z,42.08398
2023-06-14T01:10:52.765Z,42.49219
2023-06-14T01:11:22.764Z,42.37109
2023-06-14T01:11:52.778Z,42.28027
2023-06-14T01:12:22.785Z,42.2002
2023-06-14T01:12:52.785Z,41.98047
2023-06-14T01:13:22.775Z,42.32227
2023-06-14T01:13:52.766Z,41.93555
2023-06-14T01:14:22.768Z,42.08984
2023-06-14T01:14:52.765Z,42.1875
2023-06-14T01:15:22.771Z,42.13184
2023-06-14T01:15:52.766Z,42.31641
2023-06-14T01:16:22.785Z,42.13965
2023-06-14T01:16:52.779Z,42.58105
2023-06-14T01:17:22.811Z,42.97852
2023-06-14T01:17:52.939Z,42.69141
2023-06-14T01:18:22.768Z,43.1875
2023-06-14T01:18:52.770Z,43.04395
2023-06-14T01:19:22.768Z,42.86621
2023-06-14T01:19:52.766Z,42.55566
2023-06-14T01:20:22.766Z,43.0166
2023-06-14T01:20:52.779Z,43.23633
2023-06-14T01:21:22.775Z,42.80664
2023-06-14T01:21:52.768Z,43.40234
2023-06-14T01:22:22.769Z,42.80957
2023-06-14T01:22:52.795Z,43.08789
2023-06-14T01:23:22.772Z,42.74902
2023-06-14T01:23:52.851Z,42.83984
2023-06-14T01:24:22.811Z,43.01563
2023-06-14T01:24:52.767Z,43.71094
2023-06-14T01:25:22.770Z,43.29102
2023-06-14T01:25:52.768Z,43.3457
2023-06-14T01:26:22.769Z,43.2793
2023-06-14T01:26:52.767Z,43.44141
2023-06-14T01:27:22.768Z,42.90039
2023-06-14T01:27:52.767Z,42.35059
2023-06-14T01:28:22.778Z,42.65039
2023-06-14T01:28:52.770Z,42.85156
2023-06-14T01:29:22.783Z,42.3457
2023-06-14T01:29:52.769Z,42.45801
2023-06-14T01:30:22.782Z,42.94336
2023-06-14T01:30:52.772Z,43.35156
2023-06-14T01:31:22.837Z,43.10938
2023-06-14T01:31:52.771Z,42.82324
2023-06-14T01:32:22.899Z,43.37598
2023-06-14T01:32:52.805Z,42.79199
2023-06-14T01:33:22.779Z,42.71777
2023-06-14T01:33:52.771Z,43.35742
2023-06-14T01:34:22.818Z,43.26953
2023-06-14T01:34:52.795Z,43.42383
2023-06-14T01:35:22.831Z,43.0918
2023-06-14T01:35:52.767Z,43.54297
2023-06-14T01:36:22.770Z,43.60742
2023-06-14T01:36:52.778Z,43.25488
2023-06-14T01:37:22.772Z,43.34375
2023-06-14T01:37:52.774Z,42.61621
2023-06-14T01:38:22.776Z,42.81836
2023-06-14T01:38:52.776Z,42.91016
2023-06-14T01:39:22.772Z,42.72559
2023-06-14T01:39:52.773Z,43.38867
2023-06-14T01:40:22.796Z,43.4668
2023-06-14T01:40:52.781Z,43.6748
2023-06-14T01:41:22.777Z,43.37598
2023-06-14T01:41:52.776Z,43.80664
2023-06-14T01:42:22.795Z,43.49512
2023-06-14T01:42:52.775Z,44.27246
2023-06-14T01:43:22.771Z,44.3916
2023-06-14T01:43:52.779Z,43.61914
2023-06-14T01:44:22.776Z,44.28125
2023-06-14T01:44:52.772Z,43.95117
2023-06-14T01:45:22.783Z,43.69531
2023-06-14T01:45:52.823Z,44.11328
2023-06-14T01:46:22.835Z,44.25586
2023-06-14T01:46:52.779Z,44.08887
2023-06-14T01:47:22.906Z,44.01172
2023-06-14T01:47:52.879Z,44.97949
2023-06-14T01:48:22.788Z,44.68164
2023-06-14T01:48:52.779Z,44.48047
2023-06-14T01:49:22.776Z,44.47949
2023-06-14T01:49:52.787Z,44.37988
2023-06-14T01:50:22.786Z,43.80566
2023-06-14T01:50:52.794Z,44.43262
2023-06-14T01:51:22.786Z,44.75977
2023-06-14T01:51:52.786Z,44.70215
2023-06-14T01:52:22.778Z,44.52441
2023-06-14T01:52:52.782Z,44.1377
2023-06-14T01:53:22.780Z,44.37012
2023-06-14T01:53:52.784Z,44.55762
2023-06-14T01:54:22.777Z,44.70898
2023-06-14T01:54:52.782Z,45.16895
2023-06-14T01:55:22.777Z,45.06836
2023-06-14T01:55:52.781Z,45.50684
2023-06-14T01:56:22.797Z,45.60547
2023-06-14T01:56:52.778Z,45.90137
2023-06-14T01:57:22.779Z,46.17676
2023-06-14T01:57:52.779Z,47.27734
2023-06-14T01:58:22.781Z,46.03125
2023-06-14T01:58:52.795Z,47.56836
2023-06-14T01:59:22.778Z,47.62207
2023-06-14T01:59:52.778Z,48.01563
2023-06-14T02:00:22.781Z,47.78223
2023-06-14T02:00:52.786Z,49.78223
2023-06-14T02:01:22.805Z,49.28613
2023-06-14T02:01:52.824Z,48.71094
2023-06-14T02:02:22.782Z,48.3584
2023-06-14T02:02:52.849Z,48.17188
2023-06-14T02:03:22.782Z,49.04297
2023-06-14T02:03:52.806Z,49.20898
2023-06-14T02:04:22.787Z,49.50586
2023-06-14T02:04:52.782Z,50.20703
2023-06-14T02:05:22.793Z,50.16992
2023-06-14T02:05:52.863Z,50.95605
2023-06-14T02:06:22.784Z,50.45605
2023-06-14T02:06:52.810Z,50.26563
2023-06-14T02:07:22.794Z,50.81348
2023-06-14T02:07:52.786Z,51.66992
2023-06-14T02:08:22.786Z,51.42676
2023-06-14T02:08:52.785Z,50.61328
2023-06-14T02:09:22.784Z,50.76953
2023-06-14T02:09:52.806Z,51.71289
2023-06-14T02:10:22.783Z,51.29492
2023-06-14T02:10:52.783Z,51.44727
2023-06-14T02:11:22.788Z,50.50293
2023-06-14T02:11:52.796Z,51.30566
2023-06-14T02:12:22.785Z,50.47461
2023-06-14T02:12:52.787Z,50.33496
2023-06-14T02:13:22.785Z,49.95215
2023-06-14T02:13:52.785Z,50.48242
2023-06-14T02:14:22.785Z,50.23047
2023-06-14T02:14:52.792Z,49.82324
2023-06-14T02:15:22.787Z,50.4082
2023-06-14T02:15:52.874Z,49.76074
2023-06-14T02:16:22.804Z,50.04883
2023-06-14T02:16:52.799Z,49.50879
2023-06-14T02:17:22.843Z,49.20313
2023-06-14T02:17:52.814Z,49.03809
2023-06-14T02:18:22.805Z,49.14941
2023-06-14T02:18:52.788Z,50.59961
2023-06-14T02:19:22.801Z,50.22461
2023-06-14T02:19:52.815Z,49.81836
2023-06-14T02:20:22.792Z,50.26953
2023-06-14T02:20:52.789Z,50.65625
2023-06-14T02:21:22.795Z,50.66602
2023-06-14T02:21:52.808Z,48.86133
2023-06-14T02:22:22.794Z,49.64063
2023-06-14T02:22:52.801Z,50.50781
2023-06-14T02:23:22.794Z,50.18652
2023-06-14T02:23:52.839Z,49.38379
2023-06-14T02:24:22.866Z,49.1543
2023-06-14T02:25:01.503Z,48.96973
2023-06-14T02:25:23.860Z,49.04102
2023-06-14T02:25:52.826Z,48.50586
2023-06-14T02:26:22.795Z,47.9375
2023-06-14T02:26:52.823Z,48.45898
2023-06-14T02:27:22.795Z,49.1123
2023-06-14T02:27:52.796Z,48.35742
2023-06-14T02:28:22.800Z,48.36035
2023-06-14T02:28:52.801Z,48.7832
2023-06-14T02:29:22.796Z,48.34473
2023-06-14T02:29:52.805Z,48.01465
2023-06-14T02:30:22.794Z,48.32227
2023-06-14T02:30:52.821Z,47.9043
2023-06-14T02:31:22.872Z,48.14941
2023-06-14T02:31:52.862Z,47.90039
2023-06-14T02:32:22.866Z,48.00293
2023-06-14T02:32:52.831Z,48.21387
2023-06-14T02:33:22.803Z,48.55859
2023-06-14T02:33:52.806Z,48.56934
2023-06-14T02:34:22.811Z,48.42578
2023-06-14T02:34:52.804Z,49.01758
2023-06-14T02:35:22.797Z,48.85938
2023-06-14T02:35:52.797Z,49.1416
2023-06-14T02:36:22.797Z,48.87598
2023-06-14T02:36:52.799Z,48.12793
2023-06-14T02:37:22.797Z,48.78223
2023-06-14T02:37:52.801Z,47.125
2023-06-14T02:38:22.806Z,47.9668
2023-06-14T02:38:52.816Z,46.86914
2023-06-14T02:39:22.812Z,47.45508
2023-06-14T02:39:52.833Z,48.49023
2023-06-14T02:40:22.799Z,48.34766
2023-06-14T02:40:52.801Z,48.10352
2023-06-14T02:41:22.800Z,47.67578
2023-06-14T02:41:52.805Z,47.63379
2023-06-14T02:42:22.828Z,47.08789
2023-06-14T02:42:52.808Z,47.22461
2023-06-14T02:43:22.803Z,47.56738
2023-06-14T02:43:52.799Z,47.15332
2023-06-14T02:44:22.803Z,47.00098
2023-06-14T02:44:52.812Z,46.84766
2023-06-14T02:45:22.802Z,46.55176
2023-06-14T02:45:52.812Z,47.08398
2023-06-14T02:46:22.803Z,46.29297
2023-06-14T02:46:52.819Z,46.48633
2023-06-14T02:47:22.832Z,46.56934
2023-06-14T02:47:52.885Z,46.33301
2023-06-14T02:48:22.913Z,45.76758
2023-06-14T02:49:22.800Z,46.00586
2023-06-14T02:49:52.812Z,45.72461
2023-06-14T02:50:22.801Z,45.92773
2023-06-14T02:50:52.823Z,46.14551
2023-06-14T02:51:22.801Z,46.36426
2023-06-14T02:51:52.816Z,46.16602
2023-06-14T02:52:22.805Z,46.58691
2023-06-14T02:52:52.806Z,45.80176
2023-06-14T02:53:22.802Z,45.7793
2023-06-14T02:53:52.803Z,45.38281
2023-06-14T02:54:22.809Z,45.5791
2023-06-14T02:54:52.803Z,45.89941
2023-06-14T02:55:22.803Z,45.49023
2023-06-14T02:55:52.804Z,46.0293
2023-06-14T02:56:22.801Z,45.69824
2023-06-14T02:56:52.801Z,45.71875
2023-06-14T02:57:22.804Z,45.70703
2023-06-14T02:57:52.829Z,45.85254
2023-06-14T02:58:22.829Z,45.8877
2023-06-14T02:58:52.800Z,45.61523
2023-06-14T02:59:22.798Z,45.66797
2023-06-14T02:59:52.810Z,45.65723
2023-06-14T03:00:22.815Z,45.50488
2023-06-14T03:00:52.834Z,46.0459
2023-06-14T03:01:23.005Z,46.97852
2023-06-14T03:01:52.807Z,46.52539
2023-06-14T03:02:22.838Z,45.89551
2023-06-14T03:02:52.957Z,45.93945
2023-06-14T03:03:23.057Z,45.69824
2023-06-14T03:03:52.876Z,46.15137
2023-06-14T03:04:22.809Z,46.00586
2023-06-14T03:04:52.812Z,46.98242
2023-06-14T03:05:22.804Z,46.57031
2023-06-14T03:05:52.812Z,46.41309
2023-06-14T03:06:22.815Z,47.50293
2023-06-14T03:06:52.812Z,46.91406
2023-06-14T03:07:22.805Z,47.37305
2023-06-14T03:07:52.809Z,47.25977
2023-06-14T03:08:22.807Z,47.04688
2023-06-14T03:08:52.806Z,47.16309
2023-06-14T03:09:22.823Z,47.35938
2023-06-14T03:09:52.811Z,47.49023
2023-06-14T03:10:22.818Z,47.05762
2023-06-14T03:10:52.804Z,47.70703
2023-06-14T03:11:22.807Z,47.41797
2023-06-14T03:11:52.806Z,47.89551
2023-06-14T03:12:22.808Z,47.78125
2023-06-14T03:12:52.810Z,48.16406
2023-06-14T03:13:22.815Z,47.90723
2023-06-14T03:13:52.821Z,48.24609
2023-06-14T03:14:22.805Z,48.29102
2023-06-14T03:14:52.810Z,48.33203
2023-06-14T03:15:22.814Z,48.34961
2023-06-14T03:15:52.821Z,48.69922
2023-06-14T03:16:22.841Z,48.54395
2023-06-14T03:16:52.848Z,48.49121
2023-06-14T03:17:22.807Z,48.33594
2023-06-14T03:17:52.857Z,48.86133
2023-06-14T03:18:25.436Z,49.04688
2023-06-14T03:18:53.841Z,49.27539
2023-06-14T03:19:22.842Z,49.33008
2023-06-14T03:19:52.820Z,48.59473
2023-06-14T03:20:22.821Z,48.73438
2023-06-14T03:20:52.814Z,49.8291
2023-06-14T03:21:22.817Z,49.83398
2023-06-14T03:21:52.811Z,49.38184
2023-06-14T03:22:22.811Z,49.40527
2023-06-14T03:22:52.843Z,49.60742
2023-06-14T03:23:22.812Z,49.13379
2023-06-14T03:23:52.911Z,49.11426
2023-06-14T03:24:22.934Z,49.2666
2023-06-14T03:24:52.815Z,49.52148
2023-06-14T03:25:22.811Z,49.55273
2023-06-14T03:25:52.829Z,49.84277
2023-06-14T03:26:22.816Z,49.51855
2023-06-14T03:26:52.807Z,49.14063
2023-06-14T03:27:22.822Z,49.36719
2023-06-14T03:27:52.813Z,49.11816
2023-06-14T03:28:22.835Z,49.20117
2023-06-14T03:28:52.805Z,49.23535
2023-06-14T03:29:22.815Z,50.01953
2023-06-14T03:29:52.809Z,50.22949
2023-06-14T03:30:22.812Z,50.1123
2023-06-14T03:30:52.911Z,49.95898
2023-06-14T03:31:22.887Z,49.98438
2023-06-14T03:31:52.810Z,49.31348
2023-06-14T03:32:22.915Z,49.75684
2023-06-14T03:32:52.850Z,50.09863
2023-06-14T03:33:22.818Z,50.05469
2023-06-14T03:33:52.850Z,50.85742
2023-06-14T03:34:22.866Z,50.3418
2023-06-14T03:34:52.812Z,50.59668
2023-06-14T03:35:22.816Z,50.45215
2023-06-14T03:35:52.814Z,50.63867
2023-06-14T03:36:22.818Z,50.50977
2023-06-14T03:36:52.819Z,50.19141
2023-06-14T03:37:22.833Z,51.06152
2023-06-14T03:37:52.837Z,50.55859
2023-06-14T03:38:22.820Z,51.00293
2023-06-14T03:38:52.827Z,50.31152
2023-06-14T03:39:22.835Z,49.65332
2023-06-14T03:39:52.817Z,49.73438
2023-06-14T03:40:22.817Z,49.71582
2023-06-14T03:40:52.827Z,49.77441
2023-06-14T03:41:22.814Z,49.65918
2023-06-14T03:41:52.824Z,50.02637
2023-06-14T03:42:22.820Z,48.68457
2023-06-14T03:42:52.818Z,48.57715
2023-06-14T03:43:22.829Z,49.50781
2023-06-14T03:43:52.818Z,48.9873
2023-06-14T03:44:22.819Z,48.63379
2023-06-14T03:44:52.817Z,49.29492
2023-06-14T03:45:22.819Z,48.49707
2023-06-14T03:45:52.817Z,48.83301
2023-06-14T03:46:22.826Z,49.36914
2023-06-14T03:46:52.822Z,49.45508
2023-06-14T03:47:22.884Z,48.91406
2023-06-14T03:47:52.953Z,49.2666
2023-06-14T03:48:22.894Z,49.20117
2023-06-14T03:48:52.816Z,49.61523
2023-06-14T03:49:22.836Z,48.99512
2023-06-14T03:49:52.832Z,49.17188
2023-06-14T03:50:22.815Z,48.90625
2023-06-14T03:50:52.816Z,49.84961
2023-06-14T03:51:22.830Z,49.60156
2023-06-14T03:51:52.895Z,49.55371
2023-06-14T03:52:22.816Z,50.38477
2023-06-14T03:52:52.816Z,50.78613
2023-06-14T03:53:22.818Z,49.40918
2023-06-14T03:54:11.285Z,49.72363
2023-06-14T03:54:59.094Z,50.07031
2023-06-14T03:55:56.090Z,50.93359
2023-06-14T03:56:09.336Z,49.58008
2023-06-14T03:56:23.777Z,50.14063
2023-06-14T03:56:52.821Z,50.09668
2023-06-14T03:57:22.831Z,51.76367
2023-06-14T03:57:52.829Z,51.21191
2023-06-14T03:58:22.821Z,51.37695
2023-06-14T03:58:52.821Z,49.81445
2023-06-14T03:59:22.820Z,51.1377
2023-06-14T03:59:52.819Z,50.46191
2023-06-14T04:00:22.820Z,50.3623
2023-06-14T04:00:52.820Z,49.81348
2023-06-14T04:01:22.823Z,49.61719
2023-06-14T04:01:52.820Z,49.24512
2023-06-14T04:02:22.912Z,49.29395
2023-06-14T04:02:52.887Z,49.30859
2023-06-14T04:03:22.859Z,49.10449
2023-06-14T04:03:52.887Z,49.15234
2023-06-14T04:04:22.825Z,49.00879
2023-06-14T04:04:52.822Z,50.07422
2023-06-14T04:05:22.870Z,49.70703
2023-06-14T04:05:52.925Z,49.42871
2023-06-14T04:06:22.827Z,49.54883
2023-06-14T04:06:52.836Z,49.79883
2023-06-14T04:07:22.827Z,49.78711
2023-06-14T04:07:52.824Z,51.04785
2023-06-14T04:08:22.831Z,49.84863
2023-06-14T04:08:52.828Z,50.33301
2023-06-14T04:09:22.825Z,50.59668
2023-06-14T04:09:52.828Z,50.81934
2023-06-14T04:10:22.866Z,49.91797
2023-06-14T04:10:52.841Z,51.88477
2023-06-14T04:11:22.822Z,50.91406
2023-06-14T04:11:52.830Z,51.39648
2023-06-14T04:12:22.830Z,51.4707
2023-06-14T04:12:52.896Z,51.57715
2023-06-14T04:13:22.879Z,51.59766
2023-06-14T04:13:52.837Z,51.93262
2023-06-14T04:14:22.826Z,50.8916
2023-06-14T04:14:52.824Z,50.96191
2023-06-14T04:15:22.990Z,50.59375
2023-06-14T04:15:52.875Z,51.57715
2023-06-14T04:16:22.863Z,51.26074
2023-06-14T04:16:52.831Z,51.4834
2023-06-14T04:17:22.834Z,50.87793
2023-06-14T04:17:52.887Z,50.91211
2023-06-14T04:18:24.754Z,51.25195
2023-06-14T04:18:52.845Z,51.64648
2023-06-14T04:19:22.836Z,51.69043
2023-06-14T04:19:52.825Z,49.90918
2023-06-14T04:20:22.836Z,49.76855
2023-06-14T04:20:52.832Z,50.3623
2023-06-14T04:21:22.828Z,51.05762
2023-06-14T04:21:52.830Z,49.57617
2023-06-14T04:22:22.833Z,50.13672
2023-06-14T04:22:52.836Z,48.8457
2023-06-14T04:23:22.833Z,48.4082
2023-06-14T04:23:52.870Z,48.34277
2023-06-14T04:24:22.874Z,48.3125
2023-06-14T04:25:04.412Z,48.01074
2023-06-14T04:25:24.475Z,47.79004
2023-06-14T04:25:52.831Z,46.90723
2023-06-14T04:26:23.931Z,47.30566
2023-06-14T04:26:52.833Z,46.1709
2023-06-14T04:27:22.838Z,46.15527
2023-06-14T04:27:52.833Z,46.38379
2023-06-14T04:28:22.830Z,45.7041
2023-06-14T04:28:52.836Z,45.30371
2023-06-14T04:29:22.829Z,45.16992
2023-06-14T04:29:52.834Z,45.41016
2023-06-14T04:30:22.829Z,44.91113
2023-06-14T04:30:52.842Z,45.23828
2023-06-14T04:31:22.835Z,45.55957
2023-06-14T04:31:53.121Z,45.45117
2023-06-14T04:32:22.965Z,45.56152
2023-06-14T04:32:52.872Z,45.69043
2023-06-14T04:33:22.958Z,46.19922
2023-06-14T04:33:52.914Z,45.41797
2023-06-14T04:34:22.870Z,44.99121
2023-06-14T04:34:52.850Z,45.37793
2023-06-14T04:35:22.834Z,45.20508
2023-06-14T04:35:52.844Z,45.2168
2023-06-14T04:36:22.835Z,44.46191
2023-06-14T04:36:52.837Z,44.98633
2023-06-14T04:37:22.856Z,45.10059
2023-06-14T04:37:52.833Z,44.85156
2023-06-14T04:38:22.832Z,44.77148
2023-06-14T04:38:52.834Z,43.75391
2023-06-14T04:39:22.845Z,43.96289
2023-06-14T04:39:52.846Z,43.37402
2023-06-14T04:40:22.842Z,43.20508
2023-06-14T04:40:52.844Z,42.92773
2023-06-14T04:41:22.835Z,42.68066
2023-06-14T04:41:52.840Z,42.21582
2023-06-14T04:42:22.836Z,41.66211
2023-06-14T04:42:52.835Z,41.20801
2023-06-14T04:43:22.841Z,41.50781
2023-06-14T04:43:52.836Z,41.84082
2023-06-14T04:44:22.837Z,41.84277
2023-06-14T04:44:52.847Z,41.41602
2023-06-14T04:45:22.854Z,41.29297
2023-06-14T04:45:52.885Z,40.9375
2023-06-14T04:46:22.879Z,39.85938
2023-06-14T04:46:52.896Z,40.19141
2023-06-14T04:47:22.843Z,40.18945
2023-06-14T04:47:52.892Z,39.52734
2023-06-14T04:48:22.837Z,39.45801
2023-06-14T04:48:52.848Z,39.32031
2023-06-14T04:49:23.391Z,38.83691
2023-06-14T04:49:52.838Z,38.72461
2023-06-14T04:50:22.882Z,38.5918
2023-06-14T04:50:52.850Z,38.34375
2023-06-14T04:51:22.850Z,38.61523
2023-06-14T04:51:52.853Z,38.35547
2023-06-14T04:52:22.871Z,37.41699
2023-06-14T04:52:52.854Z,37.25
2023-06-14T04:53:22.840Z,36.67773
2023-06-14T04:53:52.842Z,36.67578
2023-06-14T04:54:22.847Z,36.05176
2023-06-14T04:54:52.841Z,35.65039
2023-06-14T04:55:22.855Z,35.54688
2023-06-14T04:55:52.872Z,36.0332
2023-06-14T04:56:22.864Z,35.78027
2023-06-14T04:56:52.842Z,36.29004
2023-06-14T04:57:22.864Z,37.18262
2023-06-14T04:57:52.843Z,37.48047
2023-06-14T04:58:22.851Z,37.91699
2023-06-14T04:58:52.845Z,37.77246
2023-06-14T04:59:22.852Z,38.47363
2023-06-14T04:59:52.845Z,38.59277
2023-06-14T05:00:22.846Z,38.67188
2023-06-14T05:00:52.845Z,39.42773
2023-06-14T05:01:22.926Z,40.65625
2023-06-14T05:01:52.921Z,40.12402
2023-06-14T05:02:22.859Z,40.13184
2023-06-14T05:02:52.901Z,40.76074
2023-06-14T05:03:22.874Z,41.02637
2023-06-14T05:03:52.901Z,40.78711
2023-06-14T05:04:22.848Z,41.5332
2023-06-14T05:04:52.866Z,41.13574
2023-06-14T05:05:22.859Z,41.2334
2023-06-14T05:05:52.853Z,41.46582
2023-06-14T05:06:22.844Z,41.46094
2023-06-14T05:06:52.849Z,42.36328
2023-06-14T05:07:22.849Z,41.69336
2023-06-14T05:07:52.861Z,41.52734
2023-06-14T05:08:22.842Z,42.28711
2023-06-14T05:08:52.852Z,42.2334
2023-06-14T05:09:22.848Z,42.27637
2023-06-14T05:09:52.876Z,41.9502
2023-06-14T05:10:22.846Z,42.15625
2023-06-14T05:10:52.911Z,42.28809
2023-06-14T05:11:22.851Z,42.17578
2023-06-14T05:11:52.853Z,42.17285
2023-06-14T05:12:22.849Z,41.60156
2023-06-14T05:12:52.845Z,41.31152
2023-06-14T05:13:22.849Z,40.44434
2023-06-14T05:13:52.854Z,40.98047
2023-06-14T05:14:22.848Z,41.20703
2023-06-14T05:14:52.870Z,40.87695
2023-06-14T05:15:22.853Z,41.26758
2023-06-14T05:15:52.861Z,40.83105
2023-06-14T05:16:22.871Z,40.38672
2023-06-14T05:16:52.851Z,40.07813
2023-06-14T05:17:22.888Z,40.06934
2023-06-14T05:17:52.871Z,39.12891
2023-06-14T05:18:22.867Z,37.14355
2023-06-14T05:18:52.846Z,36.24805
2023-06-14T05:19:22.848Z,36.32422
2023-06-14T05:19:52.846Z,35.73633
2023-06-14T05:20:22.848Z,34.88574
2023-06-14T05:20:52.863Z,35.11621
2023-06-14T05:21:22.859Z,34.59277
2023-06-14T05:21:52.852Z,34.8252
2023-06-14T05:22:22.847Z,34.5918
2023-06-14T05:22:52.871Z,34.34082
2023-06-14T05:23:22.849Z,32.81934
2023-06-14T05:23:52.868Z,32.97949
2023-06-14T05:24:22.958Z,32.74902
2023-06-14T05:24:52.858Z,32.63672
2023-06-14T05:25:22.849Z,30.6748
2023-06-14T05:25:52.857Z,30.78223
2023-06-14T05:26:22.851Z,30.29004
2023-06-14T05:26:52.879Z,31.09961
2023-06-14T05:27:22.909Z,30.5293
2023-06-14T05:27:52.850Z,30.53613
2023-06-14T05:28:22.847Z,30.5
2023-06-14T05:28:52.847Z,30.34375
2023-06-14T05:29:22.848Z,29.53223
2023-06-14T05:29:52.846Z,29.3418
2023-06-14T05:30:22.850Z,29.60938
2023-06-14T05:30:52.848Z,29.56055
2023-06-14T05:31:22.893Z,29.15137
2023-06-14T05:31:52.874Z,29.55762
2023-06-14T05:32:22.872Z,30.01758
2023-06-14T05:32:52.953Z,29.76563
2023-06-14T05:33:22.932Z,29.69824
2023-06-14T05:33:52.896Z,29.6543
2023-06-14T05:34:22.856Z,29.36523
2023-06-14T05:34:52.856Z,29.44824
2023-06-14T05:35:22.850Z,28.71094
2023-06-14T05:35:52.858Z,27.57422
2023-06-14T05:36:22.856Z,25.36719
2023-06-14T05:36:52.859Z,22.96582
2023-06-14T05:37:22.856Z,21.91211
2023-06-14T05:37:52.855Z,19.0498
2023-06-14T05:38:22.859Z,17.23535
2023-06-14T05:38:52.855Z,16.10254
2023-06-14T05:39:22.855Z,14.92578
2023-06-14T05:39:52.857Z,13.75195
2023-06-14T05:40:22.857Z,13.52637
2023-06-14T05:40:52.891Z,15.21289
2023-06-14T05:41:22.869Z,16.0459
2023-06-14T05:41:52.869Z,17.20898
2023-06-14T05:42:22.859Z,19.28418
2023-06-14T05:42:52.860Z,20.72363
2023-06-14T05:43:22.862Z,21.17969
2023-06-14T05:43:52.857Z,20.59082
2023-06-14T05:44:22.869Z,21.30957
2023-06-14T05:44:52.859Z,21.46484
2023-06-14T05:45:22.881Z,20.95801
2023-06-14T05:45:52.860Z,20.7334
2023-06-14T05:46:22.875Z,20.33008
2023-06-14T05:46:52.917Z,19.77441
2023-06-14T05:47:22.902Z,19.90137
2023-06-14T05:47:52.882Z,21.01953
2023-06-14T05:48:22.883Z,22.14258
2023-06-14T05:48:52.881Z,22.35938
2023-06-14T05:49:22.864Z,23.24805
2023-06-14T05:49:52.871Z,23.2666
2023-06-14T05:50:22.868Z,23.39063
2023-06-14T05:50:52.880Z,23.90234
2023-06-14T05:51:22.861Z,24.63281
2023-06-14T05:51:52.869Z,25.13477
2023-06-14T05:52:22.890Z,25.36914
2023-06-14T05:52:52.866Z,25.00684
2023-06-14T05:53:22.870Z,25.40625
2023-06-14T05:53:52.867Z,25.1709
2023-06-14T05:54:22.863Z,25.5918